Logan, North Dakota
Current Conditions -  °F | °C
As of 1:54 PM on Sunday 23 Nov 2014 (Local Time) from KMOT Reporting Station
Light Snow Light Snow  
Wind Chill:   Ceiling: 2200
Heat Index: 18°   Visibility: 9mi
Dew Point:   Wind: 24mph
Humidity: 68%   Direction: 300°WNW
Pressure: 29.6"   Gusts: 33mph
Location:  48.1414°N, 101.387°W
Report Text: KMOT 231954Z 30021G29KT 9SM -SN BKN022 BKN030 OVC046 M08/M13 A2960 RMK AO2 PK WND 29030/1935 SLP046 P0000 T10781128
Loading
Personal Weather Stations






























Interactive Weather Map New forecast layout! Learn more

10-Day Weather Forecast

Advertisements
Track Severe Weather on mobile